sensor_id;sensor_type;location;lat;lon;timestamp;temperature;humidity
66962;HTU21D;53897;51.126;5.868;2023-06-19T00:02:09;27.72;45.32
66962;HTU21D;53897;51.126;5.868;2023-06-19T00:04:35;27.72;45.32
66962;HTU21D;53897;51.126;5.868;2023-06-19T00:07:01;27.72;45.32
66962;HTU21D;53897;51.126;5.868;2023-06-19T00:09:27;27.70;45.32
66962;HTU21D;53897;51.126;5.868;2023-06-19T00:11:52;27.69;45.32
66962;HTU21D;53897;51.126;5.868;2023-06-19T00:14:18;27.70;45.32
66962;HTU21D;53897;51.126;5.868;2023-06-19T00:16:44;27.70;45.32
66962;HTU21D;53897;51.126;5.868;2023-06-19T00:19:10;27.69;45.32
66962;HTU21D;53897;51.126;5.868;2023-06-19T00:21:37;27.69;45.37
66962;HTU21D;53897;51.126;5.868;2023-06-19T00:24:05;27.68;45.50
66962;HTU21D;53897;51.126;5.868;2023-06-19T00:26:31;27.67;45.52
66962;HTU21D;53897;51.126;5.868;2023-06-19T00:28:57;27.66;45.46
66962;HTU21D;53897;51.126;5.868;2023-06-19T00:31:23;27.67;45.43
66962;HTU21D;53897;51.126;5.868;2023-06-19T00:33:49;27.66;45.45
66962;HTU21D;53897;51.126;5.868;2023-06-19T00:36:16;27.66;45.48
66962;HTU21D;53897;51.126;5.868;2023-06-19T00:38:46;27.65;45.52
66962;HTU21D;53897;51.126;5.868;2023-06-19T00:41:12;27.66;45.54
66962;HTU21D;53897;51.126;5.868;2023-06-19T00:43:38;27.65;45.53
66962;HTU21D;53897;51.126;5.868;2023-06-19T00:46:04;27.65;45.48
66962;HTU21D;53897;51.126;5.868;2023-06-19T00:48:32;27.64;45.41
66962;HTU21D;53897;51.126;5.868;2023-06-19T00:50:59;27.65;45.37
66962;HTU21D;53897;51.126;5.868;2023-06-19T00:53:25;27.65;45.34
66962;HTU21D;53897;51.126;5.868;2023-06-19T00:55:53;27.64;45.32
66962;HTU21D;53897;51.126;5.868;2023-06-19T00:58:20;27.64;45.36
66962;HTU21D;53897;51.126;5.868;2023-06-19T01:00:47;27.63;45.41
66962;HTU21D;53897;51.126;5.868;2023-06-19T01:03:13;27.64;45.42
66962;HTU21D;53897;51.126;5.868;2023-06-19T01:05:39;27.61;45.41
66962;HTU21D;53897;51.126;5.868;2023-06-19T01:11:03;27.61;45.41
66962;HTU21D;53897;51.126;5.868;2023-06-19T01:13:43;27.61;45.39
66962;HTU21D;53897;51.126;5.868;2023-06-19T01:16:11;27.58;45.40
66962;HTU21D;53897;51.126;5.868;2023-06-19T01:18:38;27.59;45.38
66962;HTU21D;53897;51.126;5.868;2023-06-19T01:21:14;27.58;45.38
66962;HTU21D;53897;51.126;5.868;2023-06-19T01:23:41;27.58;45.38
66962;HTU21D;53897;51.126;5.868;2023-06-19T01:26:08;27.58;45.40
66962;HTU21D;53897;51.126;5.868;2023-06-19T01:28:35;27.58;45.38
66962;HTU21D;53897;51.126;5.868;2023-06-19T01:31:11;27.57;45.35
66962;HTU21D;53897;51.126;5.868;2023-06-19T01:33:42;27.57;45.35
66962;HTU21D;53897;51.126;5.868;2023-06-19T01:36:09;27.57;45.32
66962;HTU21D;53897;51.126;5.868;2023-06-19T01:38:37;27.57;45.31
66962;HTU21D;53897;51.126;5.868;2023-06-19T01:41:06;27.56;45.33
66962;HTU21D;53897;51.126;5.868;2023-06-19T01:43:32;27.55;45.36
66962;HTU21D;53897;51.126;5.868;2023-06-19T01:45:59;27.56;45.38
66962;HTU21D;53897;51.126;5.868;2023-06-19T01:48:27;27.54;45.39
66962;HTU21D;53897;51.126;5.868;2023-06-19T01:50:53;27.53;45.41
66962;HTU21D;53897;51.126;5.868;2023-06-19T01:53:19;27.54;45.39
66962;HTU21D;53897;51.126;5.868;2023-06-19T01:55:46;27.54;45.38
66962;HTU21D;53897;51.126;5.868;2023-06-19T01:58:11;27.53;45.39
66962;HTU21D;53897;51.126;5.868;2023-06-19T02:00:37;27.53;45.37
66962;HTU21D;53897;51.126;5.868;2023-06-19T02:03:04;27.52;45.38
66962;HTU21D;53897;51.126;5.868;2023-06-19T02:05:33;27.53;45.42
66962;HTU21D;53897;51.126;5.868;2023-06-19T02:08:00;27.51;45.38
66962;HTU21D;53897;51.126;5.868;2023-06-19T02:10:26;27.51;45.32
66962;HTU21D;53897;51.126;5.868;2023-06-19T02:12:52;27.51;45.30
66962;HTU21D;53897;51.126;5.868;2023-06-19T02:15:18;27.51;45.32
66962;HTU21D;53897;51.126;5.868;2023-06-19T02:17:44;27.50;45.32
66962;HTU21D;53897;51.126;5.868;2023-06-19T02:20:10;27.50;45.31
66962;HTU21D;53897;51.126;5.868;2023-06-19T02:22:40;27.49;45.28
66962;HTU21D;53897;51.126;5.868;2023-06-19T02:25:06;27.47;45.25
66962;HTU21D;53897;51.126;5.868;2023-06-19T02:27:32;27.49;45.25
66962;HTU21D;53897;51.126;5.868;2023-06-19T02:29:59;27.47;45.21
66962;HTU21D;53897;51.126;5.868;2023-06-19T02:32:25;27.46;45.19
66962;HTU21D;53897;51.126;5.868;2023-06-19T02:34:52;27.45;45.17
66962;HTU21D;53897;51.126;5.868;2023-06-19T02:37:17;27.46;45.17
66962;HTU21D;53897;51.126;5.868;2023-06-19T02:39:43;27.46;45.14
66962;HTU21D;53897;51.126;5.868;2023-06-19T02:42:09;27.46;45.12
66962;HTU21D;53897;51.126;5.868;2023-06-19T02:44:34;27.45;45.13
66962;HTU21D;53897;51.126;5.868;2023-06-19T02:47:01;27.44;45.14
66962;HTU21D;53897;51.126;5.868;2023-06-19T02:49:27;27.43;45.13
66962;HTU21D;53897;51.126;5.868;2023-06-19T02:51:53;27.43;45.12
66962;HTU21D;53897;51.126;5.868;2023-06-19T02:54:20;27.45;45.11
66962;HTU21D;53897;51.126;5.868;2023-06-19T02:56:45;27.45;45.10
66962;HTU21D;53897;51.126;5.868;2023-06-19T02:59:11;27.43;45.09
66962;HTU21D;53897;51.126;5.868;2023-06-19T03:01:37;27.43;45.10
66962;HTU21D;53897;51.126;5.868;2023-06-19T03:04:03;27.43;45.10
66962;HTU21D;53897;51.126;5.868;2023-06-19T03:06:29;27.42;45.09
66962;HTU21D;53897;51.126;5.868;2023-06-19T03:08:56;27.42;45.09
66962;HTU21D;53897;51.126;5.868;2023-06-19T03:11:22;27.41;45.10
66962;HTU21D;53897;51.126;5.868;2023-06-19T03:13:51;27.40;45.07
66962;HTU21D;53897;51.126;5.868;2023-06-19T03:16:19;27.40;45.06
66962;HTU21D;53897;51.126;5.868;2023-06-19T03:18:47;27.41;45.05
66962;HTU21D;53897;51.126;5.868;2023-06-19T03:21:15;27.40;45.08
66962;HTU21D;53897;51.126;5.868;2023-06-19T03:23:43;27.40;45.06
66962;HTU21D;53897;51.126;5.868;2023-06-19T03:26:09;27.39;45.06
66962;HTU21D;53897;51.126;5.868;2023-06-19T03:28:37;27.39;45.06
66962;HTU21D;53897;51.126;5.868;2023-06-19T03:31:06;27.39;45.06
66962;HTU21D;53897;51.126;5.868;2023-06-19T03:33:32;27.39;45.08
66962;HTU21D;53897;51.126;5.868;2023-06-19T03:35:57;27.39;45.05
66962;HTU21D;53897;51.126;5.868;2023-06-19T03:38:48;27.38;45.08
66962;HTU21D;53897;51.126;5.868;2023-06-19T03:41:16;27.37;45.11
66962;HTU21D;53897;51.126;5.868;2023-06-19T03:43:41;27.36;45.13
66962;HTU21D;53897;51.126;5.868;2023-06-19T03:46:07;27.36;45.14
66962;HTU21D;53897;51.126;5.868;2023-06-19T03:48:33;27.36;45.16
66962;HTU21D;53897;51.126;5.868;2023-06-19T03:51:00;27.36;45.15
66962;HTU21D;53897;51.126;5.868;2023-06-19T03:53:27;27.35;45.12
66962;HTU21D;53897;51.126;5.868;2023-06-19T03:55:53;27.30;45.14
66962;HTU21D;53897;51.126;5.868;2023-06-19T03:58:20;27.27;45.20
66962;HTU21D;53897;51.126;5.868;2023-06-19T04:00:45;27.25;45.26
66962;HTU21D;53897;51.126;5.868;2023-06-19T04:03:11;27.23;45.33
66962;HTU21D;53897;51.126;5.868;2023-06-19T04:05:37;27.20;45.38
66962;HTU21D;53897;51.126;5.868;2023-06-19T04:08:04;27.19;45.44
66962;HTU21D;53897;51.126;5.868;2023-06-19T04:10:30;27.16;45.49
66962;HTU21D;53897;51.126;5.868;2023-06-19T04:12:56;27.14;45.55
66962;HTU21D;53897;51.126;5.868;2023-06-19T04:15:22;27.13;45.59
66962;HTU21D;53897;51.126;5.868;2023-06-19T04:17:48;27.12;45.64
66962;HTU21D;53897;51.126;5.868;2023-06-19T04:20:14;27.10;45.68
66962;HTU21D;53897;51.126;5.868;2023-06-19T04:22:41;27.10;45.72
66962;HTU21D;53897;51.126;5.868;2023-06-19T04:25:08;27.10;45.72
66962;HTU21D;53897;51.126;5.868;2023-06-19T04:27:36;27.11;45.70
66962;HTU21D;53897;51.126;5.868;2023-06-19T04:30:03;27.11;45.68
66962;HTU21D;53897;51.126;5.868;2023-06-19T04:32:30;27.12;45.70
66962;HTU21D;53897;51.126;5.868;2023-06-19T04:34:56;27.13;45.71
66962;HTU21D;53897;51.126;5.868;2023-06-19T04:37:23;27.12;45.70
66962;HTU21D;53897;51.126;5.868;2023-06-19T04:39:48;27.14;45.70
66962;HTU21D;53897;51.126;5.868;2023-06-19T04:42:16;27.15;45.75
66962;HTU21D;53897;51.126;5.868;2023-06-19T04:44:49;27.17;45.77
66962;HTU21D;53897;51.126;5.868;2023-06-19T04:47:21;27.17;45.81
66962;HTU21D;53897;51.126;5.868;2023-06-19T04:49:47;27.20;45.88
66962;HTU21D;53897;51.126;5.868;2023-06-19T04:52:13;27.20;45.90
66962;HTU21D;53897;51.126;5.868;2023-06-19T04:54:39;27.21;45.96
66962;HTU21D;53897;51.126;5.868;2023-06-19T04:57:05;27.21;45.99
66962;HTU21D;53897;51.126;5.868;2023-06-19T04:59:32;27.20;45.99
66962;HTU21D;53897;51.126;5.868;2023-06-19T05:01:59;27.21;46.03
66962;HTU21D;53897;51.126;5.868;2023-06-19T05:04:25;27.20;46.09
66962;HTU21D;53897;51.126;5.868;2023-06-19T05:06:51;27.21;46.15
66962;HTU21D;53897;51.126;5.868;2023-06-19T05:09:17;27.22;46.19
66962;HTU21D;53897;51.126;5.868;2023-06-19T05:11:42;27.22;46.22
66962;HTU21D;53897;51.126;5.868;2023-06-19T05:14:08;27.20;46.25
66962;HTU21D;53897;51.126;5.868;2023-06-19T05:16:34;27.22;46.28
66962;HTU21D;53897;51.126;5.868;2023-06-19T05:19:00;27.21;46.32
66962;HTU21D;53897;51.126;5.868;2023-06-19T05:21:26;27.21;46.41
66962;HTU21D;53897;51.126;5.868;2023-06-19T05:23:52;27.20;46.51
66962;HTU21D;53897;51.126;5.868;2023-06-19T05:26:21;27.21;46.57
66962;HTU21D;53897;51.126;5.868;2023-06-19T05:28:49;27.20;46.55
66962;HTU21D;53897;51.126;5.868;2023-06-19T05:31:15;27.21;46.69
66962;HTU21D;53897;51.126;5.868;2023-06-19T05:33:41;27.20;46.78
66962;HTU21D;53897;51.126;5.868;2023-06-19T05:36:07;27.22;46.84
66962;HTU21D;53897;51.126;5.868;2023-06-19T05:38:33;27.19;46.79
66962;HTU21D;53897;51.126;5.868;2023-06-19T05:40:58;27.16;46.82
66962;HTU21D;53897;51.126;5.868;2023-06-19T05:43:25;27.14;46.93
66962;HTU21D;53897;51.126;5.868;2023-06-19T05:45:52;27.14;47.05
66962;HTU21D;53897;51.126;5.868;2023-06-19T05:48:18;27.12;47.15
66962;HTU21D;53897;51.126;5.868;2023-06-19T05:50:44;27.15;47.19
66962;HTU21D;53897;51.126;5.868;2023-06-19T05:53:10;27.16;47.43
66962;HTU21D;53897;51.126;5.868;2023-06-19T05:55:35;27.15;47.57
66962;HTU21D;53897;51.126;5.868;2023-06-19T05:58:02;27.14;47.59
66962;HTU21D;53897;51.126;5.868;2023-06-19T06:00:30;27.16;47.76
66962;HTU21D;53897;51.126;5.868;2023-06-19T06:02:56;27.16;47.89
66962;HTU21D;53897;51.126;5.868;2023-06-19T06:05:25;27.19;47.97
66962;HTU21D;53897;51.126;5.868;2023-06-19T06:07:52;27.17;48.03
66962;HTU21D;53897;51.126;5.868;2023-06-19T06:10:23;27.17;48.06
66962;HTU21D;53897;51.126;5.868;2023-06-19T06:12:50;27.19;48.11
66962;HTU21D;53897;51.126;5.868;2023-06-19T06:15:16;27.19;48.15
66962;HTU21D;53897;51.126;5.868;2023-06-19T06:17:42;27.17;48.18
66962;HTU21D;53897;51.126;5.868;2023-06-19T06:20:08;27.17;48.20
66962;HTU21D;53897;51.126;5.868;2023-06-19T06:22:41;27.17;48.21
66962;HTU21D;53897;51.126;5.868;2023-06-19T06:25:08;27.17;48.19
66962;HTU21D;53897;51.126;5.868;2023-06-19T06:27:36;27.15;48.19
66962;HTU21D;53897;51.126;5.868;2023-06-19T06:30:02;27.16;48.24
66962;HTU21D;53897;51.126;5.868;2023-06-19T06:32:30;27.15;48.30
66962;HTU21D;53897;51.126;5.868;2023-06-19T06:34:57;27.16;48.33
66962;HTU21D;53897;51.126;5.868;2023-06-19T06:37:23;27.15;48.30
66962;HTU21D;53897;51.126;5.868;2023-06-19T06:39:49;27.15;48.30
66962;HTU21D;53897;51.126;5.868;2023-06-19T06:42:16;27.14;48.26
66962;HTU21D;53897;51.126;5.868;2023-06-19T06:44:43;27.15;48.33
66962;HTU21D;53897;51.126;5.868;2023-06-19T06:47:09;27.14;48.34
66962;HTU21D;53897;51.126;5.868;2023-06-19T06:49:35;27.14;48.32
66962;HTU21D;53897;51.126;5.868;2023-06-19T06:52:05;27.15;48.31
66962;HTU21D;53897;51.126;5.868;2023-06-19T06:54:31;27.14;48.31
66962;HTU21D;53897;51.126;5.868;2023-06-19T06:56:57;27.14;48.28
66962;HTU21D;53897;51.126;5.868;2023-06-19T06:59:26;27.15;48.25
66962;HTU21D;53897;51.126;5.868;2023-06-19T07:01:55;27.14;48.24
66962;HTU21D;53897;51.126;5.868;2023-06-19T07:04:22;27.14;48.22
66962;HTU21D;53897;51.126;5.868;2023-06-19T07:06:48;27.14;48.18
66962;HTU21D;53897;51.126;5.868;2023-06-19T07:09:14;27.15;48.14
66962;HTU21D;53897;51.126;5.868;2023-06-19T07:11:43;27.15;48.10
66962;HTU21D;53897;51.126;5.868;2023-06-19T07:14:09;27.15;48.09
66962;HTU21D;53897;51.126;5.868;2023-06-19T07:16:35;27.15;48.05
66962;HTU21D;53897;51.126;5.868;2023-06-19T07:19:00;27.16;48.00
66962;HTU21D;53897;51.126;5.868;2023-06-19T07:21:28;27.15;47.99
66962;HTU21D;53897;51.126;5.868;2023-06-19T07:23:54;27.16;47.96
66962;HTU21D;53897;51.126;5.868;2023-06-19T07:26:20;27.19;47.92
66962;HTU21D;53897;51.126;5.868;2023-06-19T07:28:46;27.17;47.86
66962;HTU21D;53897;51.126;5.868;2023-06-19T07:31:12;27.17;47.83
66962;HTU21D;53897;51.126;5.868;2023-06-19T07:33:37;27.19;47.77
66962;HTU21D;53897;51.126;5.868;2023-06-19T07:36:03;27.20;47.76
66962;HTU21D;53897;51.126;5.868;2023-06-19T07:38:29;27.19;47.70
66962;HTU21D;53897;51.126;5.868;2023-06-19T07:40:55;27.17;47.79
66962;HTU21D;53897;51.126;5.868;2023-06-19T07:43:20;27.17;47.83
66962;HTU21D;53897;51.126;5.868;2023-06-19T07:45:49;27.17;47.76
66962;HTU21D;53897;51.126;5.868;2023-06-19T07:48:15;27.19;47.67
66962;HTU21D;53897;51.126;5.868;2023-06-19T07:50:42;27.20;47.60
66962;HTU21D;53897;51.126;5.868;2023-06-19T07:53:07;27.21;47.49
66962;HTU21D;53897;51.126;5.868;2023-06-19T07:55:33;27.20;47.50
66962;HTU21D;53897;51.126;5.868;2023-06-19T07:58:01;27.20;47.60
66962;HTU21D;53897;51.126;5.868;2023-06-19T08:00:27;27.20;47.54
66962;HTU21D;53897;51.126;5.868;2023-06-19T08:02:52;27.22;47.47
66962;HTU21D;53897;51.126;5.868;2023-06-19T08:05:18;27.21;47.44
66962;HTU21D;53897;51.126;5.868;2023-06-19T08:07:44;27.21;47.44
66962;HTU21D;53897;51.126;5.868;2023-06-19T08:10:10;27.22;47.41
66962;HTU21D;53897;51.126;5.868;2023-06-19T08:12:36;27.22;47.38
66962;HTU21D;53897;51.126;5.868;2023-06-19T08:15:02;27.24;47.34
66962;HTU21D;53897;51.126;5.868;2023-06-19T08:17:28;27.24;47.31
66962;HTU21D;53897;51.126;5.868;2023-06-19T08:19:53;27.24;47.25
66962;HTU21D;53897;51.126;5.868;2023-06-19T08:22:19;27.25;47.26
66962;HTU21D;53897;51.126;5.868;2023-06-19T08:24:45;27.25;47.18
66962;HTU21D;53897;51.126;5.868;2023-06-19T08:27:13;27.26;47.19
66962;HTU21D;53897;51.126;5.868;2023-06-19T08:29:39;27.27;47.15
66962;HTU21D;53897;51.126;5.868;2023-06-19T08:32:05;27.28;47.09
66962;HTU21D;53897;51.126;5.868;2023-06-19T08:34:31;27.27;47.02
66962;HTU21D;53897;51.126;5.868;2023-06-19T08:36:57;27.28;46.99
66962;HTU21D;53897;51.126;5.868;2023-06-19T08:39:22;27.28;46.96
66962;HTU21D;53897;51.126;5.868;2023-06-19T08:41:48;27.28;46.89
66962;HTU21D;53897;51.126;5.868;2023-06-19T08:44:14;27.29;46.80
66962;HTU21D;53897;51.126;5.868;2023-06-19T08:46:39;27.29;46.77
66962;HTU21D;53897;51.126;5.868;2023-06-19T08:49:08;27.31;46.75
66962;HTU21D;53897;51.126;5.868;2023-06-19T08:51:35;27.31;46.76
66962;HTU21D;53897;51.126;5.868;2023-06-19T08:54:06;27.32;46.76
66962;HTU21D;53897;51.126;5.868;2023-06-19T08:56:32;27.32;46.76
66962;HTU21D;53897;51.126;5.868;2023-06-19T08:59:14;27.36;46.80
66962;HTU21D;53897;51.126;5.868;2023-06-19T09:01:47;27.36;46.78
66962;HTU21D;53897;51.126;5.868;2023-06-19T09:04:19;27.36;46.76
66962;HTU21D;53897;51.126;5.868;2023-06-19T09:09:16;27.38;46.73
66962;HTU21D;53897;51.126;5.868;2023-06-19T09:11:43;27.39;46.73
66962;HTU21D;53897;51.126;5.868;2023-06-19T09:14:10;27.40;46.74
66962;HTU21D;53897;51.126;5.868;2023-06-19T09:16:41;27.42;46.76
66962;HTU21D;53897;51.126;5.868;2023-06-19T09:19:07;27.40;46.86
66962;HTU21D;53897;51.126;5.868;2023-06-19T09:21:36;27.42;46.95
66962;HTU21D;53897;51.126;5.868;2023-06-19T09:24:07;27.43;46.93
66962;HTU21D;53897;51.126;5.868;2023-06-19T09:26:35;27.44;46.85
66962;HTU21D;53897;51.126;5.868;2023-06-19T09:29:11;27.44;46.82
66962;HTU21D;53897;51.126;5.868;2023-06-19T09:31:37;27.45;46.81
66962;HTU21D;53897;51.126;5.868;2023-06-19T09:34:04;27.46;46.97
66962;HTU21D;53897;51.126;5.868;2023-06-19T09:36:31;27.49;46.98
66962;HTU21D;53897;51.126;5.868;2023-06-19T09:38:59;27.51;46.99
66962;HTU21D;53897;51.126;5.868;2023-06-19T09:41:25;27.52;47.05
66962;HTU21D;53897;51.126;5.868;2023-06-19T09:43:55;27.53;46.97
66962;HTU21D;53897;51.126;5.868;2023-06-19T09:46:32;27.53;46.81
66962;HTU21D;53897;51.126;5.868;2023-06-19T09:49:01;27.54;46.64
66962;HTU21D;53897;51.126;5.868;2023-06-19T09:51:37;27.55;46.77
66962;HTU21D;53897;51.126;5.868;2023-06-19T09:54:05;27.57;46.89
66962;HTU21D;53897;51.126;5.868;2023-06-19T09:56:32;27.56;46.99
66962;HTU21D;53897;51.126;5.868;2023-06-19T09:58:59;27.58;46.97
66962;HTU21D;53897;51.126;5.868;2023-06-19T10:01:31;27.60;46.80
66962;HTU21D;53897;51.126;5.868;2023-06-19T10:04:06;27.63;46.57
66962;HTU21D;53897;51.126;5.868;2023-06-19T10:06:32;27.64;46.41
66962;HTU21D;53897;51.126;5.868;2023-06-19T10:09:07;27.65;46.30
66962;HTU21D;53897;51.126;5.868;2023-06-19T10:11:53;27.65;46.22
66962;HTU21D;53897;51.126;5.868;2023-06-19T10:14:22;27.66;46.14
66962;HTU21D;53897;51.126;5.868;2023-06-19T10:16:50;27.68;45.99
66962;HTU21D;53897;51.126;5.868;2023-06-19T10:19:20;27.68;45.78
66962;HTU21D;53897;51.126;5.868;2023-06-19T10:21:49;27.69;45.80
66962;HTU21D;53897;51.126;5.868;2023-06-19T10:24:17;27.71;45.63
66962;HTU21D;53897;51.126;5.868;2023-06-19T10:26:44;27.71;45.51
66962;HTU21D;53897;51.126;5.868;2023-06-19T10:29:17;27.73;45.51
66962;HTU21D;53897;51.126;5.868;2023-06-19T10:31:43;27.74;45.48
66962;HTU21D;53897;51.126;5.868;2023-06-19T10:34:10;27.74;45.36
66962;HTU21D;53897;51.126;5.868;2023-06-19T10:36:36;27.74;45.50
66962;HTU21D;53897;51.126;5.868;2023-06-19T10:39:01;27.76;45.31
66962;HTU21D;53897;51.126;5.868;2023-06-19T10:41:27;27.75;45.19
66962;HTU21D;53897;51.126;5.868;2023-06-19T10:44:04;27.78;45.08
66962;HTU21D;53897;51.126;5.868;2023-06-19T10:46:32;27.79;44.84
66962;HTU21D;53897;51.126;5.868;2023-06-19T10:49:00;27.80;44.76
66962;HTU21D;53897;51.126;5.868;2023-06-19T10:51:27;27.81;44.63
66962;HTU21D;53897;51.126;5.868;2023-06-19T10:53:57;27.82;44.48
66962;HTU21D;53897;51.126;5.868;2023-06-19T10:56:24;27.82;44.40
66962;HTU21D;53897;51.126;5.868;2023-06-19T10:59:17;27.83;44.26
66962;HTU21D;53897;51.126;5.868;2023-06-19T11:01:46;27.85;43.96
66962;HTU21D;53897;51.126;5.868;2023-06-19T11:04:13;27.85;43.80
66962;HTU21D;53897;51.126;5.868;2023-06-19T11:06:42;27.85;43.70
66962;HTU21D;53897;51.126;5.868;2023-06-19T11:09:10;27.86;43.74
66962;HTU21D;53897;51.126;5.868;2023-06-19T11:14:05;27.87;44.00
66962;HTU21D;53897;51.126;5.868;2023-06-19T11:16:33;27.87;44.08
66962;HTU21D;53897;51.126;5.868;2023-06-19T11:18:59;27.87;44.09
66962;HTU21D;53897;51.126;5.868;2023-06-19T11:21:33;27.89;43.98
66962;HTU21D;53897;51.126;5.868;2023-06-19T11:24:04;27.89;43.81
66962;HTU21D;53897;51.126;5.868;2023-06-19T11:26:37;27.89;43.81
66962;HTU21D;53897;51.126;5.868;2023-06-19T11:31:41;27.91;43.41
66962;HTU21D;53897;51.126;5.868;2023-06-19T11:34:07;27.90;43.39
66962;HTU21D;53897;51.126;5.868;2023-06-19T11:36:39;27.91;43.59
66962;HTU21D;53897;51.126;5.868;2023-06-19T11:39:11;27.91;43.70
66962;HTU21D;53897;51.126;5.868;2023-06-19T11:41:40;27.91;43.79
66962;HTU21D;53897;51.126;5.868;2023-06-19T11:44:08;27.91;43.84
66962;HTU21D;53897;51.126;5.868;2023-06-19T11:46:37;27.93;43.88
66962;HTU21D;53897;51.126;5.868;2023-06-19T11:49:12;27.91;43.90
66962;HTU21D;53897;51.126;5.868;2023-06-19T11:51:40;27.91;43.93
66962;HTU21D;53897;51.126;5.868;2023-06-19T11:54:07;27.90;43.96
66962;HTU21D;53897;51.126;5.868;2023-06-19T11:56:38;27.91;44.01
66962;HTU21D;53897;51.126;5.868;2023-06-19T11:59:04;27.93;44.04
66962;HTU21D;53897;51.126;5.868;2023-06-19T12:01:35;27.94;44.07
66962;HTU21D;53897;51.126;5.868;2023-06-19T12:04:02;27.94;44.10
66962;HTU21D;53897;51.126;5.868;2023-06-19T12:06:29;27.94;44.13
66962;HTU21D;53897;51.126;5.868;2023-06-19T12:08:55;27.94;44.16
66962;HTU21D;53897;51.126;5.868;2023-06-19T12:11:21;27.94;44.18
66962;HTU21D;53897;51.126;5.868;2023-06-19T12:13:47;27.94;44.21
66962;HTU21D;53897;51.126;5.868;2023-06-19T12:16:14;27.95;44.23
66962;HTU21D;53897;51.126;5.868;2023-06-19T12:18:39;27.96;44.25
66962;HTU21D;53897;51.126;5.868;2023-06-19T12:21:05;27.96;44.27
66962;HTU21D;53897;51.126;5.868;2023-06-19T12:23:31;27.96;44.30
66962;HTU21D;53897;51.126;5.868;2023-06-19T12:25:57;27.97;44.32
66962;HTU21D;53897;51.126;5.868;2023-06-19T12:28:23;27.97;44.33
66962;HTU21D;53897;51.126;5.868;2023-06-19T12:30:49;27.98;44.36
66962;HTU21D;53897;51.126;5.868;2023-06-19T12:33:18;27.98;44.40
66962;HTU21D;53897;51.126;5.868;2023-06-19T12:35:44;27.99;44.41
66962;HTU21D;53897;51.126;5.868;2023-06-19T12:38:11;27.99;44.47
66962;HTU21D;53897;51.126;5.868;2023-06-19T12:40:37;27.99;44.57
66962;HTU21D;53897;51.126;5.868;2023-06-19T12:43:04;27.99;44.58
66962;HTU21D;53897;51.126;5.868;2023-06-19T12:45:29;28.01;44.58
66962;HTU21D;53897;51.126;5.868;2023-06-19T12:47:55;28.01;44.66
66962;HTU21D;53897;51.126;5.868;2023-06-19T12:50:22;28.02;44.66
66962;HTU21D;53897;51.126;5.868;2023-06-19T12:52:48;28.03;44.66
66962;HTU21D;53897;51.126;5.868;2023-06-19T12:55:14;28.03;44.67
66962;HTU21D;53897;51.126;5.868;2023-06-19T12:57:40;28.04;44.70
66962;HTU21D;53897;51.126;5.868;2023-06-19T13:00:09;28.04;44.72
66962;HTU21D;53897;51.126;5.868;2023-06-19T13:02:35;28.04;44.74
66962;HTU21D;53897;51.126;5.868;2023-06-19T13:05:01;28.08;44.77
66962;HTU21D;53897;51.126;5.868;2023-06-19T13:07:26;28.06;44.77
66962;HTU21D;53897;51.126;5.868;2023-06-19T13:09:52;28.08;44.78
66962;HTU21D;53897;51.126;5.868;2023-06-19T13:12:18;28.09;44.80
66962;HTU21D;53897;51.126;5.868;2023-06-19T13:14:43;28.08;44.82
66962;HTU21D;53897;51.126;5.868;2023-06-19T13:17:09;28.08;44.82
66962;HTU21D;53897;51.126;5.868;2023-06-19T13:19:35;28.11;44.84
66962;HTU21D;53897;51.126;5.868;2023-06-19T13:22:01;28.11;44.87
66962;HTU21D;53897;51.126;5.868;2023-06-19T13:24:26;28.13;44.88
66962;HTU21D;53897;51.126;5.868;2023-06-19T13:26:53;28.12;44.90
66962;HTU21D;53897;51.126;5.868;2023-06-19T13:29:19;28.11;44.90
66962;HTU21D;53897;51.126;5.868;2023-06-19T13:31:45;28.13;44.92
66962;HTU21D;53897;51.126;5.868;2023-06-19T13:34:11;28.14;44.91
66962;HTU21D;53897;51.126;5.868;2023-06-19T13:36:37;28.16;44.92
66962;HTU21D;53897;51.126;5.868;2023-06-19T13:39:04;28.15;44.93
66962;HTU21D;53897;51.126;5.868;2023-06-19T13:41:30;28.15;44.98
66962;HTU21D;53897;51.126;5.868;2023-06-19T13:43:59;28.16;45.03
66962;HTU21D;53897;51.126;5.868;2023-06-19T13:46:24;28.16;45.04
66962;HTU21D;53897;51.126;5.868;2023-06-19T13:48:50;28.16;45.07
66962;HTU21D;53897;51.126;5.868;2023-06-19T13:51:18;28.16;45.12
66962;HTU21D;53897;51.126;5.868;2023-06-19T13:53:44;28.16;45.18
66962;HTU21D;53897;51.126;5.868;2023-06-19T13:56:10;28.18;45.25
66962;HTU21D;53897;51.126;5.868;2023-06-19T13:58:36;28.18;45.30
66962;HTU21D;53897;51.126;5.868;2023-06-19T14:01:02;28.19;45.35
66962;HTU21D;53897;51.126;5.868;2023-06-19T14:03:27;28.19;45.36
66962;HTU21D;53897;51.126;5.868;2023-06-19T14:05:53;28.20;45.38
66962;HTU21D;53897;51.126;5.868;2023-06-19T14:08:19;28.21;45.41
66962;HTU21D;53897;51.126;5.868;2023-06-19T14:10:45;28.21;45.43
66962;HTU21D;53897;51.126;5.868;2023-06-19T14:13:11;28.21;45.56
66962;HTU21D;53897;51.126;5.868;2023-06-19T14:15:36;28.23;45.61
66962;HTU21D;53897;51.126;5.868;2023-06-19T14:18:02;28.24;45.57
66962;HTU21D;53897;51.126;5.868;2023-06-19T14:20:28;28.25;45.57
66962;HTU21D;53897;51.126;5.868;2023-06-19T14:22:54;28.25;45.60
66962;HTU21D;53897;51.126;5.868;2023-06-19T14:25:19;28.26;45.62
66962;HTU21D;53897;51.126;5.868;2023-06-19T14:27:45;28.27;45.63
66962;HTU21D;53897;51.126;5.868;2023-06-19T14:30:11;28.27;45.63
66962;HTU21D;53897;51.126;5.868;2023-06-19T14:32:37;28.28;45.67
66962;HTU21D;53897;51.126;5.868;2023-06-19T14:35:04;28.28;45.72
66962;HTU21D;53897;51.126;5.868;2023-06-19T14:37:30;28.30;45.74
66962;HTU21D;53897;51.126;5.868;2023-06-19T14:39:56;28.30;45.79
66962;HTU21D;53897;51.126;5.868;2023-06-19T14:42:22;28.29;45.83
66962;HTU21D;53897;51.126;5.868;2023-06-19T14:44:47;28.31;45.87
66962;HTU21D;53897;51.126;5.868;2023-06-19T14:47:13;28.32;45.90
66962;HTU21D;53897;51.126;5.868;2023-06-19T14:49:39;28.32;45.86
66962;HTU21D;53897;51.126;5.868;2023-06-19T14:52:06;28.33;45.95
66962;HTU21D;53897;51.126;5.868;2023-06-19T14:54:32;28.32;45.95
66962;HTU21D;53897;51.126;5.868;2023-06-19T14:56:58;28.31;45.95
66962;HTU21D;53897;51.126;5.868;2023-06-19T14:59:24;28.31;45.98
66962;HTU21D;53897;51.126;5.868;2023-06-19T15:01:50;28.32;45.91
66962;HTU21D;53897;51.126;5.868;2023-06-19T15:04:16;28.31;45.90
66962;HTU21D;53897;51.126;5.868;2023-06-19T15:06:42;28.33;45.86
66962;HTU21D;53897;51.126;5.868;2023-06-19T15:09:08;28.34;45.84
66962;HTU21D;53897;51.126;5.868;2023-06-19T15:11:34;28.37;45.94
66962;HTU21D;53897;51.126;5.868;2023-06-19T15:14:00;28.37;46.09
66962;HTU21D;53897;51.126;5.868;2023-06-19T15:16:26;28.37;46.13
66962;HTU21D;53897;51.126;5.868;2023-06-19T15:18:53;28.37;46.07
66962;HTU21D;53897;51.126;5.868;2023-06-19T15:21:19;28.38;46.04
66962;HTU21D;53897;51.126;5.868;2023-06-19T15:23:45;28.38;46.08
66962;HTU21D;53897;51.126;5.868;2023-06-19T15:26:11;28.34;46.16